Cammack, Indiana
Current Conditions -  °F | °C
As of 4:53 PM on Thursday 20 Nov 2014 (Local Time) from KMIE Reporting Station
Overcast Overcast  
Wind Chill: 15°   Ceiling: 4100
Heat Index: 27°   Visibility: 10mi
Dew Point: 14°   Wind: 15mph
Humidity: 58%   Direction: 260°W
Pressure: 30.11"   Gusts: 22mph
Location:  40.2341°N, 85.4639°W
Report Text: KMIE 202153Z 26013G19KT 10SM OVC041 M03/M10 A3011 RMK AO2 PK WND 25026/2057 SLP204 T10281100
Loading
Personal Weather Stations






























Interactive Weather Map New forecast layout! Learn more

10-Day Weather Forecast

Advertisements
Track Severe Weather on mobile